createdAt,value
2019-03-24T00:02:09.553Z,8.10
2019-03-24T00:04:42.618Z,8.10
2019-03-24T00:07:13.507Z,8.10
2019-03-24T00:09:44.427Z,8.00
2019-03-24T00:12:15.407Z,8.00
2019-03-24T00:14:46.248Z,7.90
2019-03-24T00:17:17.115Z,7.70
2019-03-24T00:19:47.959Z,7.70
2019-03-24T00:22:18.943Z,7.60
2019-03-24T00:24:49.760Z,7.50
2019-03-24T00:27:20.679Z,7.40
2019-03-24T00:29:56.037Z,7.40
2019-03-24T00:32:26.945Z,7.30
2019-03-24T00:34:58.197Z,7.30
2019-03-24T00:37:32.042Z,7.30
2019-03-24T00:40:03.168Z,7.30
2019-03-24T00:42:34.068Z,7.20
2019-03-24T00:45:05.992Z,7.20
2019-03-24T00:47:36.871Z,7.20
2019-03-24T00:50:08.377Z,7.20
2019-03-24T00:52:39.256Z,7.20
2019-03-24T00:55:11.035Z,7.20
2019-03-24T00:57:41.950Z,7.10
2019-03-24T01:00:14.142Z,7.10
2019-03-24T01:02:45.094Z,7.10
2019-03-24T01:05:17.637Z,6.90
2019-03-24T01:07:48.598Z,6.90
2019-03-24T01:10:19.678Z,6.90
2019-03-24T01:12:52.852Z,7.00
2019-03-24T01:15:23.772Z,7.10
2019-03-24T01:17:57.438Z,7.00
2019-03-24T01:20:28.642Z,7.00
2019-03-24T01:23:02.336Z,6.90
2019-03-24T01:25:33.271Z,6.80
2019-03-24T01:28:04.131Z,6.80
2019-03-24T01:30:35.032Z,6.80
2019-03-24T01:33:07.379Z,6.80
2019-03-24T01:35:38.223Z,6.60
2019-03-24T01:38:09.629Z,6.70
2019-03-24T01:40:40.489Z,6.70
2019-03-24T01:43:11.388Z,6.70
2019-03-24T01:45:42.305Z,6.70
2019-03-24T01:48:13.611Z,6.70
2019-03-24T01:50:44.589Z,6.60
2019-03-24T01:53:15.405Z,6.60
2019-03-24T01:55:46.259Z,6.70
2019-03-24T01:58:17.207Z,6.60
2019-03-24T02:00:48.168Z,6.70
2019-03-24T02:03:19.339Z,6.50
2019-03-24T02:05:50.316Z,6.50
2019-03-24T02:08:21.181Z,6.50
2019-03-24T02:10:52.078Z,6.50
2019-03-24T02:13:23.505Z,6.30
2019-03-24T02:15:54.383Z,6.20
2019-03-24T02:18:25.292Z,6.10
2019-03-24T02:20:56.260Z,6.10
2019-03-24T02:23:27.424Z,6.00
2019-03-24T02:25:58.678Z,6.00
2019-03-24T02:28:32.747Z,6.00
2019-03-24T02:31:03.735Z,5.90
2019-03-24T02:33:34.636Z,5.90
2019-03-24T02:36:05.626Z,5.80
2019-03-24T02:38:36.724Z,5.80
2019-03-24T02:41:08.233Z,5.70
2019-03-24T02:43:39.540Z,5.70
2019-03-24T02:46:23.592Z,5.70
2019-03-24T02:48:42.923Z,5.70
2019-03-24T02:51:14.050Z,5.60
2019-03-24T02:53:44.875Z,5.50
2019-03-24T02:56:16.067Z,5.40
2019-03-24T02:58:47.526Z,5.50
2019-03-24T03:01:18.610Z,5.40
2019-03-24T03:03:49.577Z,5.40
2019-03-24T03:06:20.564Z,5.40
2019-03-24T03:08:51.760Z,5.50
2019-03-24T03:11:24.050Z,5.50
2019-03-24T03:13:55.381Z,5.50
2019-03-24T03:16:37.974Z,5.40
2019-03-24T03:18:59.241Z,5.40
2019-03-24T03:21:30.254Z,5.40
2019-03-24T03:24:01.311Z,5.40
2019-03-24T03:26:35.180Z,5.40
2019-03-24T03:29:10.671Z,5.40
2019-03-24T03:31:41.964Z,5.50
2019-03-24T03:34:13.001Z,5.50
2019-03-24T03:36:44.066Z,5.50
2019-03-24T03:39:15.214Z,5.60
2019-03-24T03:41:46.214Z,5.40
2019-03-24T03:44:17.369Z,5.40
2019-03-24T03:46:53.025Z,5.40
2019-03-24T03:49:21.301Z,5.30
2019-03-24T03:51:52.147Z,5.40
2019-03-24T03:54:23.029Z,5.60
2019-03-24T03:56:54.027Z,5.50
2019-03-24T03:59:25.464Z,5.60
2019-03-24T04:01:57.982Z,5.60
2019-03-24T04:04:29.236Z,5.60
2019-03-24T04:07:00.381Z,5.60
2019-03-24T04:09:31.576Z,5.60
2019-03-24T04:12:04.197Z,5.60
2019-03-24T04:14:35.175Z,5.70
2019-03-24T04:17:08.009Z,5.70
2019-03-24T04:19:39.444Z,5.60
2019-03-24T04:22:11.185Z,5.70
2019-03-24T04:24:42.282Z,5.70
2019-03-24T04:27:14.216Z,5.70
2019-03-24T04:29:45.487Z,5.70
2019-03-24T04:32:16.590Z,5.70
2019-03-24T04:34:47.762Z,5.80
2019-03-24T04:37:18.976Z,5.80
2019-03-24T04:39:50.164Z,5.80
2019-03-24T04:42:21.263Z,5.80
2019-03-24T04:44:53.264Z,5.80
2019-03-24T04:47:24.664Z,5.80
2019-03-24T04:49:55.632Z,5.90
2019-03-24T04:52:27.072Z,5.90
2019-03-24T04:54:58.340Z,5.90
2019-03-24T04:57:29.416Z,5.90
2019-03-24T05:00:00.467Z,6.00
2019-03-24T05:02:31.289Z,6.00
2019-03-24T05:05:02.725Z,6.00
2019-03-24T05:07:33.645Z,6.00
2019-03-24T05:10:04.935Z,6.00
2019-03-24T05:12:35.704Z,6.10
2019-03-24T05:15:06.685Z,6.00
2019-03-24T05:17:37.667Z,6.00
2019-03-24T05:20:09.059Z,6.00
2019-03-24T05:22:39.963Z,5.90
2019-03-24T05:25:10.791Z,5.90
2019-03-24T05:27:41.787Z,5.80
2019-03-24T05:30:12.893Z,5.80
2019-03-24T05:32:45.588Z,5.80
2019-03-24T05:35:16.569Z,5.70
2019-03-24T05:37:47.792Z,5.70
2019-03-24T05:40:18.807Z,5.70
2019-03-24T05:42:50.235Z,5.70
2019-03-24T05:45:21.846Z,5.70
2019-03-24T05:47:53.202Z,5.80
2019-03-24T05:50:24.596Z,5.80
2019-03-24T05:52:55.803Z,5.80
2019-03-24T05:55:27.035Z,5.70
2019-03-24T05:57:58.307Z,5.70
2019-03-24T06:00:29.574Z,5.70
2019-03-24T06:03:01.927Z,5.80
2019-03-24T06:05:36.385Z,5.70
2019-03-24T06:08:07.800Z,5.80
2019-03-24T06:10:39.292Z,5.70
2019-03-24T06:13:10.531Z,5.70
2019-03-24T06:15:41.657Z,5.80
2019-03-24T06:18:13.256Z,5.90
2019-03-24T06:20:45.315Z,5.90
2019-03-24T06:23:16.669Z,5.90
2019-03-24T06:25:48.165Z,5.80
2019-03-24T06:28:19.391Z,5.60
2019-03-24T06:30:51.006Z,5.60
2019-03-24T06:33:22.749Z,5.70
2019-03-24T06:35:55.410Z,5.80
2019-03-24T06:38:26.809Z,5.80
2019-03-24T06:40:58.048Z,5.60
2019-03-24T06:43:30.153Z,5.60
2019-03-24T06:46:04.230Z,5.70
2019-03-24T06:48:35.438Z,5.60
2019-03-24T06:51:07.961Z,5.50
2019-03-24T06:53:39.100Z,5.30
2019-03-24T06:56:11.753Z,5.30
2019-03-24T06:58:42.791Z,5.20
2019-03-24T07:01:14.134Z,5.20
2019-03-24T07:03:45.265Z,5.30
2019-03-24T07:06:16.762Z,5.50
2019-03-24T07:08:47.921Z,5.50
2019-03-24T07:11:20.628Z,5.60
2019-03-24T07:13:53.930Z,5.70
2019-03-24T07:16:25.550Z,5.70
2019-03-24T07:18:56.927Z,5.50
2019-03-24T07:21:28.544Z,5.70
2019-03-24T07:24:00.603Z,5.60
2019-03-24T07:26:32.627Z,5.30
2019-03-24T07:29:04.425Z,5.50
2019-03-24T07:31:36.248Z,5.70
2019-03-24T07:34:07.516Z,5.70
2019-03-24T07:36:39.631Z,5.80
2019-03-24T07:39:12.744Z,5.90
2019-03-24T07:41:46.112Z,6.00
2019-03-24T07:44:17.869Z,6.10
2019-03-24T07:46:49.835Z,6.10
2019-03-24T07:49:21.736Z,6.20
2019-03-24T07:51:55.308Z,6.30
2019-03-24T07:54:27.112Z,6.20
2019-03-24T07:56:58.807Z,6.30
2019-03-24T07:59:30.347Z,6.40
2019-03-24T08:02:01.680Z,6.40
2019-03-24T08:04:33.127Z,6.30
2019-03-24T08:07:05.316Z,6.30
2019-03-24T08:09:37.310Z,6.30
2019-03-24T08:12:10.439Z,6.50
2019-03-24T08:14:43.443Z,6.50
2019-03-24T08:17:14.837Z,6.60
2019-03-24T08:19:46.290Z,6.70
2019-03-24T08:22:17.801Z,6.60
2019-03-24T08:24:49.494Z,6.60
2019-03-24T08:27:21.286Z,6.60
2019-03-24T08:29:54.643Z,6.70
2019-03-24T08:32:26.335Z,6.80
2019-03-24T08:34:58.013Z,6.90
2019-03-24T08:37:30.311Z,6.90
2019-03-24T08:40:02.357Z,6.90
2019-03-24T08:42:34.055Z,6.80
2019-03-24T08:45:06.245Z,6.80
2019-03-24T08:47:38.349Z,6.90
2019-03-24T08:50:10.119Z,7.10
2019-03-24T08:52:42.198Z,7.10
2019-03-24T08:55:14.483Z,7.00
2019-03-24T08:57:45.865Z,7.00
2019-03-24T09:00:17.240Z,7.00
2019-03-24T09:02:48.752Z,6.70
2019-03-24T09:05:20.652Z,7.10
2019-03-24T09:07:51.971Z,7.10
2019-03-24T09:10:23.614Z,7.20
2019-03-24T09:12:55.910Z,7.40
2019-03-24T09:15:30.862Z,7.30
2019-03-24T09:18:02.244Z,7.60
2019-03-24T09:20:41.622Z,7.60
2019-03-24T09:23:07.114Z,7.70
2019-03-24T09:25:38.811Z,7.70
2019-03-24T09:28:09.960Z,8.00
2019-03-24T09:30:42.952Z,8.20
2019-03-24T09:33:14.624Z,8.30
2019-03-24T09:35:52.021Z,8.10
2019-03-24T09:38:23.389Z,8.00
2019-03-24T09:40:54.858Z,8.10
2019-03-24T09:43:26.097Z,7.90
2019-03-24T09:45:57.301Z,8.20
2019-03-24T09:48:28.493Z,8.60
2019-03-24T09:50:59.828Z,8.60
2019-03-24T09:53:30.929Z,8.40
2019-03-24T09:56:02.304Z,8.70
2019-03-24T09:58:33.767Z,8.70
2019-03-24T10:01:05.173Z,8.60
2019-03-24T10:03:36.689Z,8.70
2019-03-24T10:06:07.885Z,8.80
2019-03-24T10:08:47.085Z,8.90
2019-03-24T10:11:12.323Z,9.10
2019-03-24T10:13:43.805Z,9.30
2019-03-24T10:16:15.324Z,9.30
2019-03-24T10:18:46.669Z,9.40
2019-03-24T10:21:17.983Z,9.60
2019-03-24T10:23:49.269Z,9.60
2019-03-24T10:26:20.903Z,9.80
2019-03-24T10:28:52.200Z,9.70
2019-03-24T10:31:23.890Z,9.60
2019-03-24T10:33:55.216Z,9.60
2019-03-24T10:36:27.195Z,9.80
2019-03-24T10:39:00.080Z,9.90
2019-03-24T10:41:31.484Z,10.20
2019-03-24T10:44:02.684Z,10.30
2019-03-24T10:46:34.032Z,10.50
2019-03-24T10:49:05.422Z,10.50
2019-03-24T10:51:36.779Z,10.50
2019-03-24T10:54:07.942Z,10.50
2019-03-24T10:56:39.352Z,10.20
2019-03-24T10:59:10.486Z,10.10
2019-03-24T11:01:41.756Z,10.30
2019-03-24T11:04:13.117Z,10.30
2019-03-24T11:06:44.305Z,10.60
2019-03-24T11:09:15.977Z,10.50
2019-03-24T11:11:47.335Z,10.90
2019-03-24T11:14:19.821Z,11.20
2019-03-24T11:16:53.881Z,10.80
2019-03-24T11:19:35.004Z,11.20
2019-03-24T11:21:58.144Z,11.30
2019-03-24T11:24:29.570Z,11.40
2019-03-24T11:27:01.070Z,11.60
2019-03-24T11:29:32.294Z,11.30
2019-03-24T11:32:03.616Z,11.60
2019-03-24T11:34:34.848Z,11.60
2019-03-24T11:37:06.345Z,11.50
2019-03-24T11:39:37.689Z,11.30
2019-03-24T11:42:09.011Z,11.30
2019-03-24T11:44:40.297Z,11.80
2019-03-24T11:47:14.856Z,11.90
2019-03-24T11:49:49.029Z,11.40
2019-03-24T11:52:19.728Z,11.50
2019-03-24T11:54:51.564Z,11.70
2019-03-24T11:57:23.197Z,11.60
2019-03-24T11:59:54.737Z,11.60
2019-03-24T12:02:27.546Z,11.60
2019-03-24T12:04:59.030Z,11.40
2019-03-24T12:07:30.196Z,10.80
2019-03-24T12:10:02.915Z,11.40
2019-03-24T12:12:34.268Z,11.90
2019-03-24T12:15:06.122Z,12.00
2019-03-24T12:17:37.677Z,11.90
2019-03-24T12:20:10.935Z,11.90
2019-03-24T12:22:43.917Z,12.00
2019-03-24T12:25:15.022Z,12.10
2019-03-24T12:27:46.331Z,11.80
2019-03-24T12:30:17.647Z,12.10
2019-03-24T12:32:49.091Z,12.20
2019-03-24T12:35:21.835Z,12.50
2019-03-24T12:37:53.259Z,12.20
2019-03-24T12:40:24.639Z,12.40
2019-03-24T12:42:56.137Z,12.30
2019-03-24T12:45:27.490Z,12.50
2019-03-24T12:47:59.305Z,12.70
2019-03-24T12:50:31.934Z,12.60
2019-03-24T12:53:03.511Z,12.90
2019-03-24T12:55:34.869Z,12.90
2019-03-24T12:58:06.114Z,12.90
2019-03-24T13:00:39.280Z,12.80
2019-03-24T13:03:10.626Z,12.80
2019-03-24T13:05:42.058Z,12.90
2019-03-24T13:08:15.082Z,13.00
2019-03-24T13:10:47.666Z,12.90
2019-03-24T13:13:19.296Z,12.90
2019-03-24T13:15:53.508Z,13.00
2019-03-24T13:18:24.965Z,13.10
2019-03-24T13:20:56.324Z,13.00
2019-03-24T13:23:32.199Z,13.00
2019-03-24T13:26:03.664Z,13.10
2019-03-24T13:28:35.073Z,13.20
2019-03-24T13:31:06.693Z,13.30
2019-03-24T13:33:38.120Z,13.20
2019-03-24T13:36:12.407Z,13.10
2019-03-24T13:38:44.511Z,13.20
2019-03-24T13:41:15.797Z,13.10
2019-03-24T13:43:47.121Z,13.10
2019-03-24T13:46:18.483Z,13.00
2019-03-24T13:48:55.497Z,13.10
2019-03-24T13:51:26.911Z,13.10
2019-03-24T13:53:58.142Z,13.20
2019-03-24T13:56:29.781Z,13.00
2019-03-24T13:59:02.504Z,13.00
2019-03-24T14:01:33.794Z,13.00
2019-03-24T14:04:04.999Z,12.90
2019-03-24T14:06:36.394Z,13.10
2019-03-24T14:09:11.991Z,13.00
2019-03-24T14:11:43.852Z,13.10
2019-03-24T14:14:15.028Z,13.20
2019-03-24T14:16:46.683Z,13.10
2019-03-24T14:19:18.137Z,13.10
2019-03-24T14:21:49.368Z,13.10
2019-03-24T14:24:21.425Z,13.00
2019-03-24T14:26:52.582Z,13.20
2019-03-24T14:29:27.163Z,13.20
2019-03-24T14:31:58.752Z,13.30
2019-03-24T14:34:30.038Z,13.20
2019-03-24T14:37:01.653Z,13.10
2019-03-24T14:39:33.438Z,13.20
2019-03-24T14:42:04.891Z,13.40
2019-03-24T14:44:36.647Z,13.50
2019-03-24T14:47:08.538Z,13.50
2019-03-24T14:49:40.067Z,13.60
2019-03-24T14:52:14.603Z,13.30
2019-03-24T14:54:46.439Z,13.40
2019-03-24T14:57:17.533Z,13.30
2019-03-24T14:59:49.318Z,13.20
2019-03-24T15:02:20.729Z,13.40
2019-03-24T15:04:51.913Z,13.60
2019-03-24T15:07:23.238Z,13.40
2019-03-24T15:09:54.358Z,13.60
2019-03-24T15:12:29.145Z,13.60
2019-03-24T15:15:00.371Z,13.70
2019-03-24T15:17:31.835Z,13.70
2019-03-24T15:20:03.455Z,13.60
2019-03-24T15:22:36.144Z,13.70
2019-03-24T15:25:08.007Z,13.70
2019-03-24T15:27:39.345Z,13.80
2019-03-24T15:30:14.128Z,13.80
2019-03-24T15:32:45.769Z,13.80
2019-03-24T15:35:17.383Z,13.80
2019-03-24T15:37:48.978Z,13.80
2019-03-24T15:40:20.258Z,13.90
2019-03-24T15:42:55.612Z,14.00
2019-03-24T15:45:26.972Z,13.80
2019-03-24T15:47:58.096Z,13.90
2019-03-24T15:50:29.406Z,13.80
2019-03-24T15:53:00.611Z,13.90
2019-03-24T15:55:31.638Z,13.80
2019-03-24T15:58:04.221Z,13.90
2019-03-24T16:00:46.755Z,13.90
2019-03-24T16:03:18.664Z,13.80
2019-03-24T16:05:50.110Z,13.80
2019-03-24T16:08:21.468Z,13.90
2019-03-24T16:10:52.569Z,14.00
2019-03-24T16:13:23.689Z,14.00
2019-03-24T16:15:54.960Z,14.00
2019-03-24T16:18:26.603Z,14.10
2019-03-24T16:20:57.474Z,13.90
2019-03-24T16:23:28.953Z,13.80
2019-03-24T16:26:00.977Z,13.90
2019-03-24T16:28:32.338Z,13.80
2019-03-24T16:31:03.915Z,13.70
2019-03-24T16:33:35.563Z,13.90
2019-03-24T16:36:07.059Z,13.60
2019-03-24T16:38:48.508Z,13.70
2019-03-24T16:41:12.376Z,13.80
2019-03-24T16:43:46.193Z,13.70
2019-03-24T16:46:17.628Z,13.70
2019-03-24T16:48:49.616Z,13.60
2019-03-24T16:51:23.342Z,13.70
2019-03-24T16:53:54.778Z,13.60
2019-03-24T16:56:26.044Z,13.70
2019-03-24T16:58:57.294Z,13.50
2019-03-24T17:01:28.548Z,13.50
2019-03-24T17:04:02.654Z,13.50
2019-03-24T17:06:33.991Z,13.40
2019-03-24T17:09:07.429Z,13.40
2019-03-24T17:11:38.596Z,13.30
2019-03-24T17:14:09.830Z,13.40
2019-03-24T17:16:41.037Z,13.40
2019-03-24T17:19:13.841Z,13.40
2019-03-24T17:21:50.018Z,13.40
2019-03-24T17:24:18.527Z,13.40
2019-03-24T17:26:49.955Z,13.40
2019-03-24T17:29:21.003Z,13.40
2019-03-24T17:31:52.205Z,13.30
2019-03-24T17:34:23.482Z,13.20
2019-03-24T17:36:54.937Z,13.00
2019-03-24T17:39:26.254Z,12.90
2019-03-24T17:41:57.135Z,12.90
2019-03-24T17:44:28.201Z,12.80
2019-03-24T17:46:59.374Z,12.70
2019-03-24T17:49:30.333Z,12.60
2019-03-24T17:52:01.289Z,12.60
2019-03-24T17:54:32.119Z,12.60
2019-03-24T17:57:03.054Z,12.60
2019-03-24T17:59:33.872Z,12.60
2019-03-24T18:02:14.164Z,12.50
2019-03-24T18:04:39.024Z,12.50
2019-03-24T18:07:09.892Z,12.40
2019-03-24T18:09:40.693Z,12.40
2019-03-24T18:12:11.666Z,12.40
2019-03-24T18:14:42.520Z,12.30
2019-03-24T18:17:13.347Z,12.20
2019-03-24T18:19:44.283Z,12.10
2019-03-24T18:22:15.178Z,12.00
2019-03-24T18:24:47.762Z,11.90
2019-03-24T18:27:18.698Z,11.80
2019-03-24T18:29:49.833Z,11.50
2019-03-24T18:32:23.060Z,11.50
2019-03-24T18:34:53.277Z,11.60
2019-03-24T18:37:28.091Z,11.50
2019-03-24T18:39:59.413Z,11.50
2019-03-24T18:42:30.522Z,11.40
2019-03-24T18:45:01.391Z,11.40
2019-03-24T18:47:32.423Z,11.10
2019-03-24T18:50:03.351Z,10.90
2019-03-24T18:52:34.420Z,10.70
2019-03-24T18:55:05.715Z,10.70
2019-03-24T18:57:36.723Z,10.70
2019-03-24T19:00:10.328Z,10.60
2019-03-24T19:02:42.825Z,10.50
2019-03-24T19:05:13.975Z,10.40
2019-03-24T19:07:45.126Z,10.30
2019-03-24T19:10:17.085Z,10.10
2019-03-24T19:12:48.172Z,9.90
2019-03-24T19:15:19.800Z,9.80
2019-03-24T19:17:50.656Z,9.60
2019-03-24T19:20:21.600Z,9.50
2019-03-24T19:22:52.564Z,9.50
2019-03-24T19:25:23.442Z,9.40
2019-03-24T19:27:54.395Z,9.30
2019-03-24T19:30:35.384Z,9.10
2019-03-24T19:33:06.388Z,9.10
2019-03-24T19:35:37.284Z,8.90
2019-03-24T19:38:08.575Z,8.90
2019-03-24T19:40:49.421Z,8.90
2019-03-24T19:43:19.084Z,8.80
2019-03-24T19:45:50.039Z,8.70
2019-03-24T19:48:20.867Z,8.70
2019-03-24T19:50:51.905Z,8.60
2019-03-24T19:53:22.859Z,8.60
2019-03-24T19:55:54.047Z,8.60
2019-03-24T19:58:25.670Z,8.60
2019-03-24T20:00:56.518Z,8.60
2019-03-24T20:03:27.801Z,8.50
2019-03-24T20:05:58.930Z,8.50
2019-03-24T20:08:29.807Z,8.50
2019-03-24T20:11:00.826Z,8.60
2019-03-24T20:13:33.302Z,8.60
2019-03-24T20:16:04.327Z,8.70
2019-03-24T20:18:35.302Z,8.80
2019-03-24T20:21:06.250Z,8.80
2019-03-24T20:23:37.110Z,8.80
2019-03-24T20:26:09.748Z,8.80
2019-03-24T20:28:40.788Z,8.80
2019-03-24T20:31:14.540Z,8.70
2019-03-24T20:33:48.263Z,8.70
2019-03-24T20:36:19.178Z,8.70
2019-03-24T20:38:50.466Z,8.70
2019-03-24T20:41:21.377Z,8.80
2019-03-24T20:43:52.382Z,8.80
2019-03-24T20:46:23.339Z,8.70
2019-03-24T20:48:54.311Z,8.70
2019-03-24T20:51:27.501Z,8.70
2019-03-24T20:53:58.518Z,8.80
2019-03-24T20:56:32.374Z,8.70
2019-03-24T20:59:03.545Z,8.70
2019-03-24T21:01:34.583Z,8.70
2019-03-24T21:04:05.566Z,8.60
2019-03-24T21:06:36.769Z,8.60
2019-03-24T21:09:09.062Z,8.50
2019-03-24T21:11:40.123Z,8.50
2019-03-24T21:14:12.719Z,8.50
2019-03-24T21:16:46.296Z,8.40
2019-03-24T21:19:19.445Z,8.40
2019-03-24T21:21:50.726Z,8.40
2019-03-24T21:24:23.097Z,8.30
2019-03-24T21:26:54.327Z,8.30
2019-03-24T21:29:25.383Z,8.20
2019-03-24T21:31:56.482Z,8.20
2019-03-24T21:34:27.407Z,8.20
2019-03-24T21:36:58.383Z,8.20
2019-03-24T21:39:29.547Z,8.20
2019-03-24T21:42:00.427Z,8.30
2019-03-24T21:44:31.403Z,8.20
2019-03-24T21:47:02.459Z,8.20
2019-03-24T21:49:33.514Z,8.20
2019-03-24T21:52:04.492Z,8.20
2019-03-24T21:54:35.528Z,8.20
2019-03-24T21:57:06.476Z,8.30
2019-03-24T21:59:37.454Z,8.30
2019-03-24T22:02:11.526Z,8.40
2019-03-24T22:04:42.626Z,8.40
2019-03-24T22:07:13.670Z,8.50
2019-03-24T22:09:44.601Z,8.50
2019-03-24T22:12:15.507Z,8.60
2019-03-24T22:14:46.573Z,8.70
2019-03-24T22:17:17.475Z,8.70
2019-03-24T22:19:48.387Z,8.80
2019-03-24T22:22:19.395Z,8.80
2019-03-24T22:24:50.325Z,8.80
2019-03-24T22:27:21.428Z,8.80
2019-03-24T22:29:52.316Z,8.70
2019-03-24T22:32:23.247Z,8.70
2019-03-24T22:34:54.145Z,8.70
2019-03-24T22:37:25.214Z,8.60
2019-03-24T22:39:56.451Z,8.50
2019-03-24T22:42:27.315Z,8.60
2019-03-24T22:44:58.255Z,8.60
2019-03-24T22:47:29.265Z,8.60
2019-03-24T22:50:04.611Z,8.60
2019-03-24T22:52:35.562Z,8.60
2019-03-24T22:55:07.089Z,8.60
2019-03-24T22:57:41.005Z,8.60
2019-03-24T23:00:18.353Z,8.50
2019-03-24T23:02:49.429Z,8.40
2019-03-24T23:05:20.449Z,8.50
2019-03-24T23:07:52.320Z,8.50
2019-03-24T23:10:23.245Z,8.40
2019-03-24T23:12:54.172Z,8.40
2019-03-24T23:15:25.384Z,8.30
2019-03-24T23:17:56.283Z,8.20
2019-03-24T23:20:27.871Z,8.10
2019-03-24T23:22:59.358Z,8.10
2019-03-24T23:25:30.298Z,8.00
2019-03-24T23:28:01.154Z,8.00
2019-03-24T23:30:35.074Z,8.00
2019-03-24T23:33:06.266Z,8.10
2019-03-24T23:35:37.379Z,8.00
2019-03-24T23:38:08.675Z,8.10
2019-03-24T23:40:39.531Z,7.90
2019-03-24T23:43:10.433Z,7.80
2019-03-24T23:45:41.374Z,7.80
2019-03-24T23:48:12.705Z,7.70
2019-03-24T23:50:44.145Z,7.60
2019-03-24T23:53:16.501Z,7.50
2019-03-24T23:55:47.381Z,7.60
2019-03-24T23:58:18.265Z,7.60
